createdAt,value
2019-02-05T00:11:54.901Z,9.30
2019-02-05T00:14:21.479Z,8.77
2019-02-05T00:16:48.152Z,9.13
2019-02-05T00:19:14.389Z,9.43
2019-02-05T00:21:41.571Z,10.97
2019-02-05T00:24:08.855Z,10.30
2019-02-05T00:26:35.966Z,9.50
2019-02-05T00:29:02.674Z,9.47
2019-02-05T00:31:28.955Z,8.83
2019-02-05T00:33:55.213Z,9.53
2019-02-05T00:36:21.599Z,9.53
2019-02-05T00:38:48.509Z,10.30
2019-02-05T00:41:15.136Z,8.70
2019-02-05T00:43:41.398Z,8.40
2019-02-05T00:46:08.025Z,9.87
2019-02-05T00:48:34.317Z,9.93
2019-02-05T00:51:01.458Z,9.17
2019-02-05T00:53:28.473Z,8.47
2019-02-05T00:55:54.972Z,8.27
2019-02-05T00:58:22.049Z,8.83
2019-02-05T01:00:48.769Z,8.87
2019-02-05T01:03:15.133Z,9.10
2019-02-05T01:05:41.745Z,9.00
2019-02-05T01:08:08.367Z,8.27
2019-02-05T01:10:35.316Z,9.53
2019-02-05T01:13:01.930Z,10.10
2019-02-05T01:15:28.758Z,10.10
2019-02-05T01:17:55.810Z,11.80
2019-02-05T01:20:22.389Z,9.83
2019-02-05T01:22:49.304Z,9.20
2019-02-05T01:25:16.876Z,8.87
2019-02-05T01:27:43.698Z,10.67
2019-02-05T01:30:20.539Z,12.23
2019-02-05T01:32:46.913Z,10.67
2019-02-05T01:35:13.526Z,12.03
2019-02-05T01:37:40.469Z,11.47
2019-02-05T01:40:09.153Z,14.17
2019-02-05T01:42:35.843Z,13.30
2019-02-05T01:45:04.542Z,13.37
2019-02-05T01:47:31.162Z,12.80
2019-02-05T01:49:57.798Z,11.20
2019-02-05T01:52:24.424Z,12.17
2019-02-05T01:54:52.182Z,15.83
2019-02-05T01:57:18.824Z,13.60
2019-02-05T01:59:45.441Z,12.17
2019-02-05T02:02:12.428Z,11.03
2019-02-05T02:04:39.062Z,10.87
2019-02-05T02:07:06.762Z,11.57
2019-02-05T02:18:43.358Z,12.03
2019-02-05T02:21:09.690Z,12.43
2019-02-05T02:23:36.014Z,13.33
2019-02-05T02:26:02.769Z,13.50
2019-02-05T02:28:29.099Z,14.27
2019-02-05T02:30:55.669Z,12.17
2019-02-05T02:33:22.418Z,13.47
2019-02-05T02:35:48.809Z,15.93
2019-02-05T02:38:15.071Z,13.77
2019-02-05T02:40:41.642Z,13.57
2019-02-05T02:43:08.023Z,15.00
2019-02-05T02:45:34.311Z,14.50
2019-02-05T02:48:00.987Z,15.67
2019-02-05T02:50:27.889Z,14.90
2019-02-05T02:52:54.550Z,16.43
2019-02-05T02:55:21.162Z,15.50
2019-02-05T02:57:47.661Z,14.00
2019-02-05T03:00:16.159Z,13.37
2019-02-05T03:02:43.134Z,15.17
2019-02-05T03:05:10.945Z,15.83
2019-02-05T03:07:38.079Z,15.53
2019-02-05T03:10:25.599Z,16.13
2019-02-05T03:12:52.755Z,15.97
2019-02-05T03:15:19.438Z,16.33
2019-02-05T03:17:45.725Z,14.93
2019-02-05T03:20:13.530Z,13.43
2019-02-05T03:22:40.226Z,15.37
2019-02-05T03:25:18.246Z,18.37
2019-02-05T03:27:44.907Z,15.40
2019-02-05T03:30:16.167Z,17.07
2019-02-05T03:32:42.842Z,16.67
2019-02-05T03:35:09.693Z,13.60
2019-02-05T03:37:36.314Z,15.87
2019-02-05T03:40:05.155Z,14.93
2019-02-05T03:42:31.715Z,14.30
2019-02-05T03:44:57.982Z,14.83
2019-02-05T03:47:24.926Z,10.47
2019-02-05T03:49:51.409Z,14.27
2019-02-05T03:52:19.588Z,14.80
2019-02-05T03:54:49.950Z,14.60
2019-02-05T03:57:30.414Z,13.43
2019-02-05T03:59:58.286Z,13.60
2019-02-05T04:02:26.814Z,14.83
2019-02-05T04:04:55.328Z,12.90
2019-02-05T04:07:29.724Z,13.27
2019-02-05T04:10:02.513Z,14.53
2019-02-05T04:12:31.098Z,14.07
2019-02-05T04:15:06.704Z,13.93
2019-02-05T04:17:41.292Z,12.87
2019-02-05T04:20:10.034Z,16.33
2019-02-05T04:22:42.877Z,16.80
2019-02-05T04:25:35.892Z,14.60
2019-02-05T04:28:04.458Z,12.80
2019-02-05T04:30:34.632Z,20.17
2019-02-05T04:33:10.922Z,13.93
2019-02-05T04:35:56.123Z,14.13
2019-02-05T04:38:27.454Z,11.23
2019-02-05T04:40:59.034Z,14.77
2019-02-05T04:43:38.210Z,15.47
2019-02-05T04:46:09.783Z,13.80
2019-02-05T04:48:43.593Z,13.27
2019-02-05T04:51:24.826Z,13.87
2019-02-05T04:53:53.910Z,15.93
2019-02-05T04:56:29.838Z,13.93
2019-02-05T04:59:11.752Z,14.83
2019-02-05T05:01:50.646Z,14.23
2019-02-05T05:04:29.614Z,18.40
2019-02-05T05:06:59.706Z,15.43
2019-02-05T05:09:51.227Z,14.77
2019-02-05T05:12:18.730Z,11.97
2019-02-05T05:14:46.132Z,13.43
2019-02-05T05:17:12.594Z,14.30
2019-02-05T05:19:38.867Z,14.50
2019-02-05T05:22:05.461Z,14.40
2019-02-05T05:24:32.009Z,27.57
2019-02-05T05:26:59.466Z,18.87
2019-02-05T05:29:25.833Z,13.53
2019-02-05T05:40:32.995Z,16.23
2019-02-05T05:42:59.309Z,14.67
2019-02-05T05:45:25.571Z,16.07
2019-02-05T05:47:51.865Z,16.60
2019-02-05T05:50:21.246Z,13.07
2019-02-05T05:52:46.574Z,17.10
2019-02-05T05:55:13.278Z,15.47
2019-02-05T05:57:39.886Z,15.50
2019-02-05T06:02:54.523Z,15.33
2019-02-05T06:05:21.262Z,17.57
2019-02-05T06:07:48.310Z,14.53
2019-02-05T06:10:16.600Z,15.27
2019-02-05T06:12:43.209Z,19.47
2019-02-05T06:15:10.553Z,16.40
2019-02-05T06:17:36.845Z,15.50
2019-02-05T06:20:05.366Z,12.93
2019-02-05T06:22:32.040Z,17.03
2019-02-05T06:24:58.669Z,16.70
2019-02-05T06:27:25.590Z,17.97
2019-02-05T06:29:52.231Z,15.47
2019-02-05T06:32:18.597Z,17.33
2019-02-05T06:34:45.468Z,15.90
2019-02-05T06:37:12.111Z,16.57
2019-02-05T06:39:38.394Z,16.20
2019-02-05T06:42:05.143Z,14.93
2019-02-05T06:44:31.850Z,14.37
2019-02-05T06:46:58.577Z,16.43
2019-02-05T06:49:25.390Z,17.40
2019-02-05T06:51:53.030Z,16.83
2019-02-05T06:54:19.686Z,16.97
2019-02-05T06:56:46.453Z,15.27
2019-02-05T06:59:13.119Z,16.43
2019-02-05T07:01:39.765Z,15.13
2019-02-05T07:04:06.495Z,17.70
2019-02-05T07:06:33.125Z,16.30
2019-02-05T07:09:00.062Z,16.77
2019-02-05T07:11:26.675Z,16.67
2019-02-05T07:13:53.594Z,14.00
2019-02-05T07:16:21.779Z,17.40
2019-02-05T07:18:49.978Z,16.87
2019-02-05T07:21:16.614Z,16.63
2019-02-05T07:23:43.275Z,15.33
2019-02-05T07:26:11.611Z,16.73
2019-02-05T07:28:38.534Z,14.70
2019-02-05T07:31:05.286Z,12.80
2019-02-05T07:33:32.269Z,16.57
2019-02-05T07:35:59.030Z,16.40
2019-02-05T07:38:25.645Z,16.33
2019-02-05T07:40:52.321Z,16.73
2019-02-05T07:43:18.600Z,14.70
2019-02-05T07:45:45.485Z,16.07
2019-02-05T07:48:12.257Z,15.93
2019-02-05T07:50:38.537Z,17.20
2019-02-05T07:53:05.658Z,15.77
2019-02-05T07:55:32.333Z,17.77
2019-02-05T07:57:58.961Z,15.07
2019-02-05T11:23:36.116Z,6.20
2019-02-05T12:02:29.674Z,7.10
2019-02-05T12:04:56.629Z,7.10
2019-02-05T12:07:23.358Z,6.87
2019-02-05T12:09:50.009Z,7.13
2019-02-05T12:12:16.778Z,7.23
2019-02-05T12:14:43.462Z,6.43
2019-02-05T12:17:10.034Z,5.93
2019-02-05T12:19:36.446Z,7.47
2019-02-05T12:22:03.153Z,7.37
2019-02-05T12:24:29.925Z,9.30
2019-02-05T12:26:56.550Z,8.07
2019-02-05T12:29:23.162Z,8.60
2019-02-05T12:31:49.789Z,7.90
2019-02-05T12:34:16.425Z,6.73
2019-02-05T12:36:42.715Z,7.33
2019-02-05T12:39:13.221Z,8.90
2019-02-05T12:41:39.529Z,8.30
2019-02-05T12:44:06.259Z,6.77
2019-02-05T12:46:32.561Z,6.87
2019-02-05T12:48:59.174Z,7.67
2019-02-05T12:51:25.811Z,7.00
2019-02-05T12:53:52.446Z,7.27
2019-02-05T12:56:18.769Z,8.00
2019-02-05T12:58:45.406Z,7.90
2019-02-05T13:01:11.867Z,7.63
2019-02-05T13:03:38.628Z,7.00
2019-02-05T13:06:05.457Z,6.40
2019-02-05T13:08:31.970Z,6.07
2019-02-05T13:10:58.580Z,7.80
2019-02-05T13:13:25.074Z,7.67
2019-02-05T13:15:51.805Z,6.67
2019-02-05T13:18:18.755Z,6.30
2019-02-05T13:20:45.381Z,7.87
2019-02-05T13:23:11.858Z,6.77
2019-02-05T13:25:38.542Z,8.93
2019-02-05T13:28:06.879Z,7.47
2019-02-05T13:30:34.734Z,9.30
2019-02-05T13:33:01.457Z,8.17
2019-02-05T13:35:28.491Z,7.30
2019-02-05T13:37:55.165Z,8.53
2019-02-05T13:40:23.113Z,8.37
2019-02-05T13:42:49.786Z,7.17
2019-02-05T13:45:18.033Z,6.90
2019-02-05T13:47:44.666Z,8.20
2019-02-05T13:50:13.218Z,6.00
2019-02-05T13:52:39.940Z,9.60
2019-02-05T13:55:07.868Z,7.10
2019-02-05T14:25:50.023Z,7.30
2019-02-05T14:28:16.641Z,6.80
2019-02-05T14:30:45.511Z,8.10
2019-02-05T14:33:11.774Z,6.83
2019-02-05T14:35:38.390Z,8.20
2019-02-05T14:38:05.571Z,7.03
2019-02-05T14:40:32.177Z,7.17
2019-02-05T14:42:59.642Z,7.07
2019-02-05T14:45:26.122Z,6.07
2019-02-05T14:47:52.865Z,6.10
2019-02-05T14:50:22.007Z,6.67
2019-02-05T14:52:48.762Z,6.97
2019-02-05T14:55:15.034Z,6.27
2019-02-05T14:57:41.679Z,7.23
2019-02-05T15:00:17.850Z,7.43
2019-02-05T15:02:44.489Z,6.23
2019-02-05T15:05:11.424Z,5.47
2019-02-05T15:07:37.721Z,5.70
2019-02-05T15:10:06.259Z,10.37
2019-02-05T15:12:32.905Z,8.13
2019-02-05T15:14:59.232Z,6.33
2019-02-05T15:17:25.481Z,6.80
2019-02-05T15:19:52.178Z,5.97
2019-02-05T15:22:18.833Z,5.37
2019-02-05T15:24:45.734Z,7.07
2019-02-05T15:27:12.042Z,6.43
2019-02-05T15:29:38.666Z,5.70
2019-02-05T15:32:05.354Z,5.30
2019-02-05T15:34:31.969Z,5.33
2019-02-05T15:36:58.631Z,5.93
2019-02-05T15:39:24.897Z,5.77
2019-02-05T15:41:51.809Z,5.90
2019-02-05T15:44:18.461Z,5.53
2019-02-05T15:46:45.186Z,4.70
2019-02-05T15:49:11.850Z,5.33
2019-02-05T15:51:38.914Z,5.80
2019-02-05T15:54:05.709Z,4.43
2019-02-05T15:56:32.327Z,5.17
2019-02-05T15:58:58.981Z,4.53
2019-02-05T16:01:25.897Z,5.17
2019-02-05T16:03:52.526Z,4.90
2019-02-05T16:06:19.154Z,4.97
2019-02-05T16:08:45.534Z,4.97
2019-02-05T16:11:12.191Z,5.50
2019-02-05T16:13:38.806Z,5.40
2019-02-05T16:16:05.342Z,6.87
2019-02-05T16:18:31.957Z,6.03
2019-02-05T16:20:58.686Z,5.77
2019-02-05T16:23:25.313Z,6.17
2019-02-05T16:25:52.039Z,7.20
2019-02-05T16:28:18.654Z,5.57
2019-02-05T16:30:45.285Z,7.47
2019-02-05T16:33:11.562Z,5.13
2019-02-05T16:35:37.935Z,5.77
2019-02-05T16:38:04.913Z,6.27
2019-02-05T16:40:35.672Z,5.70
2019-02-05T16:43:02.809Z,5.87
2019-02-05T16:45:30.325Z,6.97
2019-02-05T16:47:56.934Z,6.50
2019-02-05T16:50:25.515Z,6.67
2019-02-05T16:52:53.489Z,6.47
2019-02-05T16:55:20.115Z,6.53
2019-02-05T16:57:47.132Z,7.03
2019-02-05T17:00:18.041Z,5.53
2019-02-05T17:02:44.442Z,6.30
2019-02-05T17:05:11.221Z,4.97
2019-02-05T17:07:37.863Z,5.87
2019-02-05T17:10:06.376Z,7.47
2019-02-05T17:12:33.006Z,5.13
2019-02-05T17:15:00.363Z,4.50
2019-02-05T17:17:26.937Z,5.77
2019-02-05T17:19:53.561Z,6.27
2019-02-05T17:22:19.848Z,5.93
2019-02-05T17:24:46.461Z,5.87
2019-02-05T17:27:12.770Z,7.47
2019-02-05T17:29:39.026Z,6.60
2019-02-05T17:32:07.787Z,6.20
2019-02-05T17:34:34.082Z,6.47
2019-02-05T17:37:00.465Z,6.97
2019-02-05T17:39:26.749Z,7.63
2019-02-05T17:41:53.013Z,7.50
2019-02-05T17:44:19.673Z,7.20
2019-02-05T17:46:46.058Z,5.80
2019-02-05T17:49:12.718Z,5.90
2019-02-05T17:51:39.357Z,7.30
2019-02-05T17:54:06.174Z,7.47
2019-02-05T17:56:32.824Z,7.30
2019-02-05T17:58:59.525Z,7.47
2019-02-05T18:01:26.190Z,6.50
2019-02-05T18:03:52.465Z,7.70
2019-02-05T18:06:19.126Z,10.80
2019-02-05T18:08:45.815Z,10.00
2019-02-05T18:11:12.491Z,10.37
2019-02-05T18:13:39.422Z,8.40
2019-02-05T18:16:07.085Z,8.37
2019-02-05T18:18:33.811Z,6.53
2019-02-05T18:21:00.481Z,7.70
2019-02-05T18:23:27.108Z,7.10
2019-02-05T18:25:53.386Z,8.27
2019-02-05T18:28:19.655Z,6.10
2019-02-05T18:30:46.045Z,6.43
2019-02-05T18:33:12.876Z,5.97
2019-02-05T18:35:39.258Z,4.70
2019-02-05T18:38:10.276Z,7.93
2019-02-05T18:40:37.115Z,8.57
2019-02-05T18:43:04.059Z,7.33
2019-02-05T18:45:30.637Z,8.37
2019-02-05T18:47:57.282Z,7.93
2019-02-05T18:50:24.898Z,7.23
2019-02-05T18:52:51.665Z,7.30
2019-02-05T18:55:18.921Z,6.93
2019-02-05T18:57:45.649Z,6.37
2019-02-05T19:00:30.000Z,7.37
2019-02-05T19:02:56.366Z,8.87
2019-02-05T19:05:23.415Z,10.77
2019-02-05T19:07:50.036Z,11.97
2019-02-05T19:10:17.974Z,12.10
2019-02-05T19:12:44.589Z,12.03
2019-02-05T19:15:15.425Z,11.93
2019-02-05T19:17:41.783Z,11.17
2019-02-05T19:20:09.738Z,10.47
2019-02-05T19:22:36.649Z,10.87
2019-02-05T19:25:07.619Z,8.97
2019-02-05T19:27:34.230Z,7.40
2019-02-05T19:30:00.514Z,8.57
2019-02-05T19:32:27.658Z,7.97
2019-02-05T19:34:53.929Z,9.30
2019-02-05T19:37:20.581Z,10.50
2019-02-05T19:39:47.202Z,8.10
2019-02-05T19:42:13.463Z,9.70
2019-02-05T19:44:41.921Z,9.30
2019-02-05T19:47:10.505Z,9.03
2019-02-05T19:49:37.206Z,8.83
2019-02-05T19:52:03.974Z,8.27
2019-02-05T19:54:30.624Z,8.17
2019-02-05T19:56:57.308Z,10.03
2019-02-05T19:59:24.250Z,9.23
2019-02-05T20:01:50.875Z,8.70
2019-02-05T20:04:18.382Z,11.03
2019-02-05T20:06:45.093Z,10.00
2019-02-05T20:09:12.706Z,10.95
2019-02-05T20:11:39.698Z,11.67
2019-02-05T20:14:08.237Z,8.60
2019-02-05T20:16:34.986Z,8.50
2019-02-05T20:19:01.601Z,12.50
2019-02-05T20:21:27.886Z,7.90
2019-02-05T20:23:54.801Z,8.47
2019-02-05T20:26:21.118Z,7.27
2019-02-05T20:28:48.823Z,9.17
2019-02-05T20:31:15.175Z,8.93
2019-02-05T20:33:49.675Z,10.97
2019-02-05T20:36:09.978Z,10.33
2019-02-05T20:38:36.630Z,11.73
2019-02-05T20:41:03.366Z,9.13
2019-02-05T20:43:29.647Z,10.73
2019-02-05T20:45:56.489Z,11.00
2019-02-05T20:48:23.133Z,11.43
2019-02-05T20:50:49.399Z,9.10
2019-02-05T20:53:16.289Z,11.53
2019-02-05T20:55:42.898Z,9.70
2019-02-05T20:58:09.169Z,9.27
2019-02-05T21:00:35.789Z,9.37
2019-02-05T21:03:02.268Z,9.63
2019-02-05T21:05:28.930Z,8.53
2019-02-05T21:07:55.788Z,9.47
2019-02-05T21:10:27.904Z,10.07
2019-02-05T21:12:54.583Z,7.93
2019-02-05T21:15:21.829Z,9.73
2019-02-05T21:17:48.566Z,8.47
2019-02-05T21:20:28.447Z,7.37
2019-02-05T21:22:47.804Z,9.07
2019-02-05T21:25:14.538Z,6.60
2019-02-05T21:27:41.983Z,9.23
2019-02-05T21:30:10.218Z,11.50
2019-02-05T21:32:37.667Z,8.03
2019-02-05T21:35:05.481Z,8.30
2019-02-05T21:37:32.029Z,8.77
2019-02-05T21:40:02.604Z,7.90
2019-02-05T21:42:26.594Z,8.17
2019-02-05T21:44:53.436Z,9.77
2019-02-05T21:47:20.118Z,7.73
2019-02-05T21:49:46.399Z,9.93
2019-02-05T21:52:13.017Z,10.77
2019-02-05T21:54:39.284Z,8.30
2019-02-05T21:57:05.898Z,9.97
2019-02-05T21:59:32.551Z,7.57
2019-02-05T22:01:59.291Z,9.73
2019-02-05T22:04:27.355Z,9.53
2019-02-05T22:06:54.328Z,9.57
2019-02-05T22:09:20.645Z,9.27
2019-02-05T22:11:46.982Z,8.77
2019-02-05T22:14:13.649Z,9.80
2019-02-05T22:16:40.277Z,9.23
2019-02-05T22:19:07.295Z,6.37
2019-02-05T22:21:33.897Z,8.70
2019-02-05T22:24:00.525Z,9.73
2019-02-05T22:26:26.811Z,11.20
2019-02-05T22:28:53.753Z,8.00
2019-02-05T22:31:20.007Z,9.00
2019-02-05T22:33:46.278Z,6.70
2019-02-05T22:36:13.202Z,11.83
2019-02-05T22:38:39.460Z,8.70
2019-02-05T22:41:06.081Z,10.00
2019-02-05T22:43:32.701Z,11.30
2019-02-05T22:45:58.962Z,9.70
2019-02-05T22:48:25.906Z,9.93
2019-02-05T22:50:52.563Z,9.40
2019-02-05T22:53:19.177Z,10.80
2019-02-05T22:55:45.794Z,11.83
2019-02-05T22:58:12.544Z,10.80
2019-02-05T23:00:53.675Z,14.30
2019-02-05T23:03:32.905Z,13.30
2019-02-05T23:06:10.877Z,12.70
2019-02-05T23:08:37.277Z,11.37
2019-02-05T23:11:38.906Z,11.87
2019-02-05T23:14:05.285Z,11.53
2019-02-05T23:16:31.597Z,13.23
2019-02-05T23:18:58.007Z,12.20
2019-02-05T23:21:24.265Z,13.23
2019-02-05T23:23:50.904Z,13.97
2019-02-05T23:26:17.138Z,12.87
2019-02-05T23:28:43.534Z,13.70
2019-02-05T23:31:09.991Z,12.63
2019-02-05T23:33:36.609Z,14.97
2019-02-05T23:36:03.085Z,11.87
2019-02-05T23:38:30.031Z,11.10
2019-02-05T23:40:56.719Z,8.63
2019-02-05T23:43:23.338Z,11.07
2019-02-05T23:46:00.969Z,12.73
2019-02-05T23:48:18.157Z,15.07
2019-02-05T23:50:44.761Z,11.87
2019-02-05T23:53:11.053Z,12.43
2019-02-05T23:55:37.680Z,14.00
2019-02-05T23:58:04.070Z,13.17
